Taurus — 9HA4372 — position and weather

sailwx.info

Track history (hours):
 
Tides and Currents Weather Stations Pressure Air Temp Water Temp Dewpoint Dewpoint Depression Visibility Wind Speed Wind Dir Waves Ship Positions

Taurus

Last reported at 2018-Jan-23 01:59 UTC. Time now 2018-Jan-23 02:05 UTC.
Position N 36°43' E 000°53'.

Length 369 m; draft 15.2 m.

Type: Ship (hazmat cat A). MMSI: 249773000.

Date/timePositionNaut miles runAvg speedWind from/ knotsBaromVisibWave heightAir tempDewpointWater temp
2018-Jan-23 01:59N 36°43' E 000°53'714.9
2018-Jan-23 01:30N 36°44' E 001°02'714.6
2018-Jan-23 01:00N 36°45' E 001°11'714.7
2018-Jan-23 00:30N 36°47' E 001°20'815.3
2018-Jan-23 00:00N 36°51' E 001°28'815.7
2018-Jan-22 23:30N 36°51' E 001°38'816.0
2018-Jan-22 23:00N 36°51' E 001°48'815.6
2018-Jan-22 22:30N 36°51' E 001°58'815.3
2018-Jan-22 22:00N 36°53' E 002°07'815.3
2018-Jan-22 21:30N 36°54' E 002°16'815.5
2018-Jan-22 21:00N 36°56' E 002°26'815.6
2018-Jan-22 20:30N 36°58' E 002°35'815.7
2018-Jan-22 20:00N 36°59' E 002°45'816.1
2018-Jan-22 19:30N 37°01' E 002°55'816.0
2018-Jan-22 19:00N 37°02' E 003°05'816.0
2018-Jan-22 18:30N 37°02' E 003°15'816.1
2018-Jan-22 18:00N 37°03' E 003°25'916.7
2018-Jan-22 17:29N 37°04' E 003°36'816.5
2018-Jan-22 17:00N 37°06' E 003°46'816.0
2018-Jan-22 16:31N 37°07' E 003°55'9614.9
2018-Jan-22 10:03N 37°21' E 005°55'116.3
2018-Jan-22 10:00N 37°21' E 005°56'815.4
2018-Jan-22 09:30N 37°22' E 006°06'815.6
2018-Jan-22 09:00N 37°23' E 006°15'815.5
2018-Jan-22 08:31N 37°25' E 006°25'815.2
2018-Jan-22 08:01N 37°26' E 006°34'714.8
2018-Jan-22 07:31N 37°27' E 006°44'814.7
2018-Jan-22 07:00N 37°28' E 006°53'1014.2
2018-Jan-22 06:16N 37°30' E 007°06'514.3
2018-Jan-22 05:55N 37°30' E 007°12'614.4
2018-Jan-22 05:31N 37°31' E 007°20'714.1
2018-Jan-22 04:59N 37°32' E 007°29'34713.9
2018-Jan-21 03:59N 36°38' E 014°38'714.8
2018-Jan-21 03:30N 36°37' E 014°47'42514.6
2018-Jan-19 22:26N 37°11' E 023°36'716.1
2018-Jan-19 22:00N 37°18' E 023°38'816.2
2018-Jan-19 21:31N 37°26' E 023°39'816.4
2018-Jan-19 21:00N 37°34' E 023°41'815.6
2018-Jan-19 20:30N 37°42' E 023°41'815.9
2018-Jan-19 20:00N 37°49' E 023°36'713.6
2018-Jan-19 19:30N 37°56' E 023°37'2 3.1
2018-Jan-19 19:01N 37°57' E 023°35'0 0.0
2018-Jan-19 18:29N 37°57' E 023°35'0 0.0
2018-Jan-19 17:59N 37°57' E 023°35'0 0.0
2018-Jan-19 17:29N 37°57' E 023°35'0 0.0
2018-Jan-19 16:59N 37°57' E 023°35'0 0.0
2018-Jan-19 16:29N 37°57' E 023°35'0 0.0
2018-Jan-19 15:59N 37°57' E 023°35'0 0.0
2018-Jan-19 15:29N 37°57' E 023°35'0 0.0
2018-Jan-19 14:59N 37°57' E 023°35'0 0.0
2018-Jan-19 14:29N 37°57' E 023°35'0 0.0
2018-Jan-19 13:59N 37°57' E 023°35'0 0.0
2018-Jan-19 13:29N 37°57' E 023°35'0 0.0
2018-Jan-19 12:59N 37°57' E 023°35'0 0.0
2018-Jan-19 12:29N 37°57' E 023°35'0 0.0
2018-Jan-19 11:59N 37°57' E 023°35'0 0.0
2018-Jan-19 11:29N 37°57' E 023°35'0 0.0
2018-Jan-19 10:59N 37°57' E 023°35'0 0.0
2018-Jan-19 10:29N 37°57' E 023°35'0 0.0
2018-Jan-19 09:59N 37°57' E 023°35'0 0.0
2018-Jan-19 09:29N 37°57' E 023°35'0 0.0
2018-Jan-19 08:59N 37°57' E 023°35'0 0.0
2018-Jan-19 08:29N 37°57' E 023°35'0 0.0
2018-Jan-19 07:59N 37°57' E 023°35'0 0.0
2018-Jan-19 07:29N 37°57' E 023°35'0 0.0
2018-Jan-19 06:59N 37°57' E 023°35'0 0.0
2018-Jan-19 06:29N 37°57' E 023°35'1 1.6
2018-Jan-19 06:00N 37°57' E 023°35'2 4.1
2018-Jan-19 05:31N 37°55' E 023°35'3 5.4
2018-Jan-19 05:01N 37°52' E 023°37'815.3
2018-Jan-19 04:31N 37°46' E 023°42'917.7
2018-Jan-19 04:00N 37°38' E 023°47'1020.4
2018-Jan-19 03:31N 37°28' E 023°51'1020.4
2018-Jan-19 03:00N 37°18' E 023°55'1020.8
2018-Jan-19 02:31N 37°09' E 023°59'1020.7
2018-Jan-19 02:00N 36°59' E 024°04'1020.7
2018-Jan-19 01:30N 36°49' E 024°08'1020.5
2018-Jan-19 01:00N 36°39' E 024°12'1020.1
2018-Jan-19 00:31N 36°31' E 024°19'1020.3
2018-Jan-19 00:00N 36°25' E 024°29'1020.2
2018-Jan-18 23:31N 36°19' E 024°39'1020.0
2018-Jan-18 23:00N 36°12' E 024°48'1019.9
2018-Jan-18 22:30N 36°05' E 024°57'1019.5
2018-Jan-18 22:00N 35°59' E 025°06'1019.3
2018-Jan-18 21:30N 35°52' E 025°15'1019.3
2018-Jan-18 21:01N 35°47' E 025°25'1019.1
2018-Jan-18 20:31N 35°42' E 025°35'918.2
2018-Jan-18 20:00N 35°37' E 025°44'816.8
2018-Jan-18 19:30N 35°33' E 025°54'815.8
2018-Jan-18 19:00N 35°30' E 026°02'714.8
2018-Jan-18 18:30N 35°27' E 026°11'  
Track history (hours):
 
Tides and Currents Weather Stations Pressure Air Temp Water Temp Dewpoint Dewpoint Depression Visibility Wind Speed Wind Dir Waves Ship Positions

Taurus

Last reported at 2018-Jan-23 01:59 UTC. Time now 2018-Jan-23 02:05 UTC.
Position N 36°43' E 000°53'.

Length 369 m; draft 15.2 m.

Type: Ship (hazmat cat A). MMSI: 249773000.

Date/timePositionNaut miles runAvg speedWind from/ knotsBaromVisibWave heightAir tempDewpointWater temp
2018-Jan-23 01:59N 36°43' E 000°53'714.9
2018-Jan-23 01:30N 36°44' E 001°02'714.6
2018-Jan-23 01:00N 36°45' E 001°11'714.7
2018-Jan-23 00:30N 36°47' E 001°20'815.3
2018-Jan-23 00:00N 36°51' E 001°28'815.7
2018-Jan-22 23:30N 36°51' E 001°38'816.0
2018-Jan-22 23:00N 36°51' E 001°48'815.6
2018-Jan-22 22:30N 36°51' E 001°58'815.3
2018-Jan-22 22:00N 36°53' E 002°07'815.3
2018-Jan-22 21:30N 36°54' E 002°16'815.5
2018-Jan-22 21:00N 36°56' E 002°26'815.6
2018-Jan-22 20:30N 36°58' E 002°35'815.7
2018-Jan-22 20:00N 36°59' E 002°45'816.1
2018-Jan-22 19:30N 37°01' E 002°55'816.0
2018-Jan-22 19:00N 37°02' E 003°05'816.0
2018-Jan-22 18:30N 37°02' E 003°15'816.1
2018-Jan-22 18:00N 37°03' E 003°25'916.7
2018-Jan-22 17:29N 37°04' E 003°36'816.5
2018-Jan-22 17:00N 37°06' E 003°46'816.0
2018-Jan-22 16:31N 37°07' E 003°55'9614.9
2018-Jan-22 10:03N 37°21' E 005°55'116.3
2018-Jan-22 10:00N 37°21' E 005°56'815.4
2018-Jan-22 09:30N 37°22' E 006°06'815.6
2018-Jan-22 09:00N 37°23' E 006°15'815.5
2018-Jan-22 08:31N 37°25' E 006°25'815.2
2018-Jan-22 08:01N 37°26' E 006°34'714.8
2018-Jan-22 07:31N 37°27' E 006°44'814.7
2018-Jan-22 07:00N 37°28' E 006°53'1014.2
2018-Jan-22 06:16N 37°30' E 007°06'514.3
2018-Jan-22 05:55N 37°30' E 007°12'614.4
2018-Jan-22 05:31N 37°31' E 007°20'714.1
2018-Jan-22 04:59N 37°32' E 007°29'34713.9
2018-Jan-21 03:59N 36°38' E 014°38'714.8
2018-Jan-21 03:30N 36°37' E 014°47'42514.6
2018-Jan-19 22:26N 37°11' E 023°36'716.1
2018-Jan-19 22:00N 37°18' E 023°38'816.2
2018-Jan-19 21:31N 37°26' E 023°39'816.4
2018-Jan-19 21:00N 37°34' E 023°41'815.6
2018-Jan-19 20:30N 37°42' E 023°41'815.9
2018-Jan-19 20:00N 37°49' E 023°36'713.6
2018-Jan-19 19:30N 37°56' E 023°37'2 3.1
2018-Jan-19 19:01N 37°57' E 023°35'0 0.0
2018-Jan-19 18:29N 37°57' E 023°35'0 0.0
2018-Jan-19 17:59N 37°57' E 023°35'0 0.0
2018-Jan-19 17:29N 37°57' E 023°35'0 0.0
2018-Jan-19 16:59N 37°57' E 023°35'0 0.0
2018-Jan-19 16:29N 37°57' E 023°35'0 0.0
2018-Jan-19 15:59N 37°57' E 023°35'0 0.0
2018-Jan-19 15:29N 37°57' E 023°35'0 0.0
2018-Jan-19 14:59N 37°57' E 023°35'0 0.0
2018-Jan-19 14:29N 37°57' E 023°35'0 0.0
2018-Jan-19 13:59N 37°57' E 023°35'0 0.0
2018-Jan-19 13:29N 37°57' E 023°35'0 0.0
2018-Jan-19 12:59N 37°57' E 023°35'0 0.0
2018-Jan-19 12:29N 37°57' E 023°35'0 0.0
2018-Jan-19 11:59N 37°57' E 023°35'0 0.0
2018-Jan-19 11:29N 37°57' E 023°35'0 0.0
2018-Jan-19 10:59N 37°57' E 023°35'0 0.0
2018-Jan-19 10:29N 37°57' E 023°35'0 0.0
2018-Jan-19 09:59N 37°57' E 023°35'0 0.0
2018-Jan-19 09:29N 37°57' E 023°35'0 0.0
2018-Jan-19 08:59N 37°57' E 023°35'0 0.0
2018-Jan-19 08:29N 37°57' E 023°35'0 0.0
2018-Jan-19 07:59N 37°57' E 023°35'0 0.0
2018-Jan-19 07:29N 37°57' E 023°35'0 0.0
2018-Jan-19 06:59N 37°57' E 023°35'0 0.0
2018-Jan-19 06:29N 37°57' E 023°35'1 1.6
2018-Jan-19 06:00N 37°57' E 023°35'2 4.1
2018-Jan-19 05:31N 37°55' E 023°35'3 5.4
2018-Jan-19 05:01N 37°52' E 023°37'815.3
2018-Jan-19 04:31N 37°46' E 023°42'917.7
2018-Jan-19 04:00N 37°38' E 023°47'1020.4
2018-Jan-19 03:31N 37°28' E 023°51'1020.4
2018-Jan-19 03:00N 37°18' E 023°55'1020.8
2018-Jan-19 02:31N 37°09' E 023°59'1020.7
2018-Jan-19 02:00N 36°59' E 024°04'1020.7
2018-Jan-19 01:30N 36°49' E 024°08'1020.5
2018-Jan-19 01:00N 36°39' E 024°12'1020.1
2018-Jan-19 00:31N 36°31' E 024°19'1020.3
2018-Jan-19 00:00N 36°25' E 024°29'1020.2
2018-Jan-18 23:31N 36°19' E 024°39'1020.0
2018-Jan-18 23:00N 36°12' E 024°48'1019.9
2018-Jan-18 22:30N 36°05' E 024°57'1019.5
2018-Jan-18 22:00N 35°59' E 025°06'1019.3
2018-Jan-18 21:30N 35°52' E 025°15'1019.3
2018-Jan-18 21:01N 35°47' E 025°25'1019.1
2018-Jan-18 20:31N 35°42' E 025°35'918.2
2018-Jan-18 20:00N 35°37' E 025°44'816.8
2018-Jan-18 19:30N 35°33' E 025°54'815.8
2018-Jan-18 19:00N 35°30' E 026°02'714.8
2018-Jan-18 18:30N 35°27' E 026°11'  

Dump ship's entire track history